Ahoskie, North Carolina
Current Conditions -  °F | °C
As of 4:35 PM on Saturday 22 Nov 2014 (Local Time) from KASJ Reporting Station
Clear Clear  
Wind Chill:   Ceiling: Unl
Heat Index:   Visibility: 10mi
Dew Point: -7°   Wind: 0mph
Humidity: 35%   Direction: NA
Pressure: 30.41"   Gusts: NA
Location:  36.29°N, 76.98°W
Report Text: KASJ 222135Z AUTO 00000KT 10SM CLR 08/M07 A3041 RMK AO2 T00801067
Loading
Personal Weather Stations






























Interactive Weather Map New forecast layout! Learn more

10-Day Weather Forecast

Advertisements
Track Severe Weather on mobile